createdAt,value
2018-03-30T00:00:39.521Z,99642.62
2018-03-30T00:03:07.033Z,99650.08
2018-03-30T00:05:34.443Z,99647.77
2018-03-30T00:08:01.845Z,99645.11
2018-03-30T00:10:29.307Z,99645.20
2018-03-30T00:12:56.713Z,99645.05
2018-03-30T00:15:24.121Z,99649.91
2018-03-30T00:17:51.531Z,99647.77
2018-03-30T00:20:18.948Z,99643.37
2018-03-30T00:22:46.390Z,99643.70
2018-03-30T00:25:13.764Z,99643.84
2018-03-30T00:27:41.164Z,99646.73
2018-03-30T00:30:08.579Z,99642.09
2018-03-30T00:32:35.976Z,99637.59
2018-03-30T00:35:03.399Z,99629.19
2018-03-30T00:37:30.815Z,99632.80
2018-03-30T00:39:58.230Z,99633.77
2018-03-30T00:42:25.673Z,99626.08
2018-03-30T00:44:53.120Z,99620.23
2018-03-30T00:47:20.588Z,99622.88
2018-03-30T00:49:47.994Z,99620.87
2018-03-30T00:52:15.405Z,99612.20
2018-03-30T00:54:42.806Z,99615.16
2018-03-30T00:57:10.230Z,99612.45
2018-03-30T00:59:37.629Z,99613.72
2018-03-30T01:02:05.042Z,99612.28
2018-03-30T01:04:32.445Z,99597.31
2018-03-30T01:06:59.858Z,99609.09
2018-03-30T01:09:27.281Z,99606.09
2018-03-30T01:11:54.701Z,99607.32
2018-03-30T01:14:22.106Z,99607.05
2018-03-30T01:16:49.801Z,99603.23
2018-03-30T01:19:17.192Z,99600.01
2018-03-30T01:21:44.601Z,99609.38
2018-03-30T01:24:12.029Z,99603.30
2018-03-30T01:26:39.429Z,99602.31
2018-03-30T01:29:06.846Z,99605.37
2018-03-30T01:31:34.257Z,99594.56
2018-03-30T01:34:01.678Z,99597.11
2018-03-30T01:36:29.097Z,99595.27
2018-03-30T01:38:56.493Z,99592.61
2018-03-30T01:41:23.922Z,99589.84
2018-03-30T01:43:51.325Z,99582.86
2018-03-30T01:46:18.810Z,99586.71
2018-03-30T01:48:46.219Z,99582.37
2018-03-30T01:51:13.616Z,99582.86
2018-03-30T01:53:41.033Z,99582.46
2018-03-30T01:56:08.433Z,99576.36
2018-03-30T01:58:35.848Z,99575.00
2018-03-30T02:01:03.281Z,99573.02
2018-03-30T02:03:30.705Z,99562.61
2018-03-30T02:05:58.110Z,99563.50
2018-03-30T02:08:25.773Z,99563.82
2018-03-30T02:10:53.189Z,99567.33
2018-03-30T02:13:20.580Z,99560.67
2018-03-30T02:15:48.025Z,99568.61
2018-03-30T02:18:15.430Z,99561.72
2018-03-30T02:20:42.853Z,99568.52
2018-03-30T02:23:10.253Z,99558.67
2018-03-30T02:25:37.670Z,99554.59
2018-03-30T02:28:05.076Z,99559.73
2018-03-30T02:30:32.502Z,99548.20
2018-03-30T02:32:59.906Z,99541.47
2018-03-30T02:35:27.367Z,99535.73
2018-03-30T02:37:54.793Z,99549.88
2018-03-30T02:40:22.211Z,99541.95
2018-03-30T02:42:49.645Z,99537.47
2018-03-30T02:45:17.067Z,99544.27
2018-03-30T02:47:44.521Z,99537.88
2018-03-30T02:50:11.923Z,99536.52
2018-03-30T02:52:39.345Z,99534.45
2018-03-30T02:55:06.746Z,99538.13
2018-03-30T02:57:34.239Z,99528.27
2018-03-30T03:00:01.583Z,99526.69
2018-03-30T03:02:29.112Z,99522.83
2018-03-30T03:04:56.527Z,99521.07
2018-03-30T03:07:23.929Z,99523.02
2018-03-30T03:09:51.341Z,99523.31
2018-03-30T03:12:18.742Z,99524.38
2018-03-30T03:14:46.154Z,99517.58
2018-03-30T03:17:13.585Z,99518.75
2018-03-30T03:19:41.009Z,99513.31
2018-03-30T03:22:08.419Z,99509.64
2018-03-30T03:24:35.831Z,99511.66
2018-03-30T03:27:03.242Z,99513.73
2018-03-30T03:29:30.941Z,99512.14
2018-03-30T03:31:58.349Z,99506.63
2018-03-30T03:34:25.776Z,99503.11
2018-03-30T03:36:53.345Z,99507.11
2018-03-30T03:39:20.848Z,99509.34
2018-03-30T03:41:48.229Z,99501.35
2018-03-30T03:44:15.662Z,99505.97
2018-03-30T03:46:43.089Z,99503.34
2018-03-30T03:49:10.510Z,99506.31
2018-03-30T03:51:37.930Z,99496.86
2018-03-30T03:54:05.336Z,99502.38
2018-03-30T03:56:32.765Z,99489.73
2018-03-30T03:59:00.206Z,99493.42
2018-03-30T04:01:27.606Z,99497.23
2018-03-30T04:03:55.021Z,99488.06
2018-03-30T04:06:22.442Z,99488.13
2018-03-30T04:08:49.856Z,99489.33
2018-03-30T04:11:17.266Z,99491.31
2018-03-30T04:13:44.673Z,99491.81
2018-03-30T04:16:12.089Z,99490.45
2018-03-30T04:18:39.504Z,99499.95
2018-03-30T04:21:06.925Z,99498.91
2018-03-30T04:23:34.345Z,99500.92
2018-03-30T04:26:01.749Z,99495.95
2018-03-30T04:28:29.165Z,99493.78
2018-03-30T04:30:56.589Z,99494.19
2018-03-30T04:33:23.985Z,99498.11
2018-03-30T04:35:51.432Z,99499.54
2018-03-30T04:38:18.873Z,99488.50
2018-03-30T04:40:46.309Z,99487.94
2018-03-30T04:43:13.720Z,99489.30
2018-03-30T04:45:41.133Z,99487.79
2018-03-30T04:48:08.553Z,99484.97
2018-03-30T04:50:35.957Z,99483.21
2018-03-30T04:53:03.375Z,99482.25
2018-03-30T04:55:30.827Z,99486.19
2018-03-30T04:57:58.226Z,99486.00
2018-03-30T05:00:25.645Z,99487.45
2018-03-30T05:02:53.059Z,99481.11
2018-03-30T05:05:20.713Z,99478.45
2018-03-30T05:07:48.124Z,99480.53
2018-03-30T05:10:15.522Z,99473.81
2018-03-30T05:12:42.943Z,99473.72
2018-03-30T05:15:10.345Z,99479.51
2018-03-30T05:17:37.775Z,99477.19
2018-03-30T05:20:05.172Z,99475.09
2018-03-30T05:22:32.586Z,99485.33
2018-03-30T05:24:59.993Z,99473.08
2018-03-30T05:27:27.601Z,99480.04
2018-03-30T05:29:55.002Z,99473.33
2018-03-30T05:32:22.413Z,99475.55
2018-03-30T05:34:49.841Z,99478.49
2018-03-30T05:37:17.248Z,99481.63
2018-03-30T05:39:44.681Z,99482.83
2018-03-30T05:42:12.070Z,99480.02
2018-03-30T05:44:39.500Z,99477.69
2018-03-30T05:47:06.905Z,99475.03
2018-03-30T05:49:34.309Z,99465.70
2018-03-30T05:52:01.735Z,99469.05
2018-03-30T05:54:29.137Z,99468.98
2018-03-30T05:56:56.786Z,99474.24
2018-03-30T05:59:24.193Z,99478.48
2018-03-30T06:01:51.601Z,99478.61
2018-03-30T06:04:19.019Z,99475.16
2018-03-30T06:06:46.425Z,99471.38
2018-03-30T06:09:14.103Z,99481.69
2018-03-30T06:11:41.504Z,99473.00
2018-03-30T06:14:09.043Z,99475.63
2018-03-30T06:16:36.474Z,99473.20
2018-03-30T06:19:03.925Z,99467.16
2018-03-30T06:21:31.302Z,99470.11
2018-03-30T06:23:58.714Z,99474.72
2018-03-30T06:26:26.130Z,99477.59
2018-03-30T06:28:53.529Z,99472.64
2018-03-30T06:31:20.950Z,99472.88
2018-03-30T06:33:48.353Z,99464.33
2018-03-30T06:36:15.753Z,99464.94
2018-03-30T06:38:43.174Z,99460.78
2018-03-30T06:41:10.587Z,99463.33
2018-03-30T06:43:38.157Z,99448.48
2018-03-30T06:46:05.818Z,99464.55
2018-03-30T06:48:33.340Z,99460.70
2018-03-30T06:51:00.757Z,99452.38
2018-03-30T06:53:28.164Z,99454.95
2018-03-30T06:55:55.576Z,99453.38
2018-03-30T06:58:23.012Z,99454.31
2018-03-30T07:00:50.408Z,99461.11
2018-03-30T07:03:17.826Z,99461.55
2018-03-30T07:05:45.485Z,99456.39
2018-03-30T07:08:12.901Z,99465.55
2018-03-30T07:10:40.293Z,99462.94
2018-03-30T07:13:07.713Z,99461.30
2018-03-30T07:15:35.117Z,99454.92
2018-03-30T07:18:02.541Z,99457.81
2018-03-30T07:20:29.943Z,99447.92
2018-03-30T07:22:57.361Z,99447.94
2018-03-30T07:25:24.762Z,99457.90
2018-03-30T07:27:52.185Z,99454.70
2018-03-30T07:30:19.601Z,99462.45
2018-03-30T07:32:47.030Z,99459.15
2018-03-30T07:35:14.435Z,99463.11
2018-03-30T07:37:41.845Z,99459.92
2018-03-30T07:40:09.254Z,99456.28
2018-03-30T07:42:36.673Z,99440.16
2018-03-30T07:45:04.093Z,99445.47
2018-03-30T07:47:31.641Z,99437.48
2018-03-30T07:49:59.060Z,99435.98
2018-03-30T07:52:26.457Z,99431.50
2018-03-30T07:54:54.857Z,99423.44
2018-03-30T07:57:22.286Z,99420.88
2018-03-30T07:59:49.693Z,99423.68
2018-03-30T08:02:17.185Z,99425.61
2018-03-30T08:04:44.607Z,99425.95
2018-03-30T08:07:12.191Z,99416.55
2018-03-30T08:09:39.639Z,99411.68
2018-03-30T08:12:07.220Z,99409.47
2018-03-30T08:14:34.914Z,99406.06
2018-03-30T08:17:02.577Z,99406.85
2018-03-30T08:19:30.021Z,99399.00
2018-03-30T08:21:57.437Z,99399.80
2018-03-30T08:24:25.393Z,99398.41
2018-03-30T08:26:52.870Z,99400.00
2018-03-30T08:29:20.434Z,99395.05
2018-03-30T08:31:48.136Z,99390.70
2018-03-30T08:34:16.466Z,99388.72
2018-03-30T08:36:44.156Z,99385.55
2018-03-30T08:39:11.578Z,99383.59
2018-03-30T08:41:39.233Z,99378.44
2018-03-30T08:44:06.814Z,99380.04
2018-03-30T08:46:34.763Z,99375.87
2018-03-30T08:49:02.209Z,99374.70
2018-03-30T08:51:29.779Z,99381.20
2018-03-30T08:53:57.457Z,99377.05
2018-03-30T08:56:25.283Z,99367.15
2018-03-30T08:58:52.917Z,99364.19
2018-03-30T09:01:20.566Z,99363.61
2018-03-30T09:03:48.052Z,99359.86
2018-03-30T09:06:15.617Z,99355.31
2018-03-30T09:08:43.026Z,99361.03
2018-03-30T09:11:10.465Z,99355.50
2018-03-30T09:13:37.888Z,99358.06
2018-03-30T09:16:05.300Z,99352.13
2018-03-30T09:18:32.722Z,99353.87
2018-03-30T09:21:00.137Z,99339.27
2018-03-30T09:23:27.582Z,99341.04
2018-03-30T09:25:55.117Z,99343.20
2018-03-30T09:28:22.557Z,99331.36
2018-03-30T09:30:49.964Z,99329.80
2018-03-30T09:33:22.859Z,99329.79
2018-03-30T09:35:50.324Z,99325.05
2018-03-30T09:38:17.789Z,99321.68
2018-03-30T09:40:45.188Z,99328.23
2018-03-30T09:43:12.606Z,99328.60
2018-03-30T09:45:40.069Z,99318.72
2018-03-30T09:48:07.493Z,99320.30
2018-03-30T09:50:34.901Z,99315.77
2018-03-30T09:53:03.277Z,99310.82
2018-03-30T09:55:30.689Z,99313.59
2018-03-30T09:57:58.093Z,99306.06
2018-03-30T10:00:25.498Z,99302.47
2018-03-30T10:02:53.692Z,99299.91
2018-03-30T10:05:21.097Z,99291.26
2018-03-30T10:07:48.592Z,99285.53
2018-03-30T10:10:16.798Z,99281.17
2018-03-30T10:12:44.210Z,99282.55
2018-03-30T10:15:11.622Z,99281.95
2018-03-30T10:17:39.033Z,99276.21
2018-03-30T10:20:06.470Z,99268.89
2018-03-30T10:22:33.870Z,99255.43
2018-03-30T10:25:01.452Z,99267.72
2018-03-30T10:27:29.117Z,99259.20
2018-03-30T10:29:56.907Z,99257.26
2018-03-30T10:32:24.302Z,99244.20
2018-03-30T10:34:52.647Z,99252.50
2018-03-30T10:37:20.214Z,99246.59
2018-03-30T10:39:47.625Z,99249.33
2018-03-30T10:42:15.287Z,99244.41
2018-03-30T10:44:43.361Z,99243.60
2018-03-30T10:47:10.790Z,99246.76
2018-03-30T10:49:38.198Z,99239.28
2018-03-30T10:52:06.063Z,99229.78
2018-03-30T10:54:34.104Z,99228.22
2018-03-30T10:57:02.004Z,99215.77
2018-03-30T10:59:29.947Z,99218.70
2018-03-30T11:01:57.346Z,99218.14
2018-03-30T11:04:25.208Z,99212.59
2018-03-30T11:06:53.401Z,99210.58
2018-03-30T11:09:22.586Z,99212.38
2018-03-30T11:11:50.258Z,99221.89
2018-03-30T11:14:18.152Z,99212.20
2018-03-30T11:16:45.991Z,99195.19
2018-03-30T11:19:13.667Z,99197.34
2018-03-30T11:21:41.263Z,99196.93
2018-03-30T11:24:08.989Z,99191.36
2018-03-30T11:26:36.532Z,99195.69
2018-03-30T11:29:03.982Z,99188.62
2018-03-30T11:31:31.401Z,99187.27
2018-03-30T11:33:58.801Z,99177.35
2018-03-30T11:36:26.225Z,99183.27
2018-03-30T11:38:53.626Z,99170.02
2018-03-30T11:41:21.514Z,99174.41
2018-03-30T11:43:48.939Z,99163.53
2018-03-30T11:46:16.333Z,99159.80
2018-03-30T11:48:43.759Z,99154.06
2018-03-30T11:51:11.193Z,99140.41
2018-03-30T11:53:38.601Z,99132.55
2018-03-30T11:56:06.014Z,99135.69
2018-03-30T11:58:33.431Z,99122.47
2018-03-30T12:01:00.926Z,99107.45
2018-03-30T12:03:28.330Z,99103.45
2018-03-30T12:05:55.733Z,99105.18
2018-03-30T12:08:23.145Z,99096.89
2018-03-30T12:10:50.546Z,99087.94
2018-03-30T12:13:17.969Z,99083.93
2018-03-30T12:15:45.375Z,99075.09
2018-03-30T12:18:12.784Z,99068.20
2018-03-30T12:20:40.207Z,99061.02
2018-03-30T12:23:07.650Z,99057.00
2018-03-30T12:25:35.085Z,99043.14
2018-03-30T12:28:02.501Z,99047.13
2018-03-30T12:30:29.926Z,99041.08
2018-03-30T12:32:57.352Z,99030.23
2018-03-30T12:35:24.793Z,99028.00
2018-03-30T12:37:52.188Z,99032.69
2018-03-30T12:40:19.634Z,99016.35
2018-03-30T12:42:47.027Z,99006.07
2018-03-30T12:45:14.439Z,99015.39
2018-03-30T12:47:41.877Z,99026.63
2018-03-30T12:50:09.282Z,99036.67
2018-03-30T12:52:36.701Z,99026.89
2018-03-30T12:55:04.469Z,99034.95
2018-03-30T12:57:31.911Z,99035.13
2018-03-30T12:59:59.306Z,99032.66
2018-03-30T13:02:26.736Z,99028.33
2018-03-30T13:04:54.139Z,99038.20
2018-03-30T13:07:21.557Z,99026.92
2018-03-30T13:09:48.961Z,99029.59
2018-03-30T13:12:16.443Z,99035.23
2018-03-30T13:14:43.825Z,99025.09
2018-03-30T13:17:11.251Z,99023.09
2018-03-30T13:19:38.645Z,99017.61
2018-03-30T13:22:06.064Z,99006.98
2018-03-30T13:24:33.462Z,99008.47
2018-03-30T13:27:00.895Z,99010.73
2018-03-30T13:29:28.316Z,99000.00
2018-03-30T13:31:55.714Z,98990.33
2018-03-30T13:34:23.143Z,98991.63
2018-03-30T13:36:50.537Z,98988.01
2018-03-30T13:39:17.956Z,98997.66
2018-03-30T13:41:45.355Z,98979.09
2018-03-30T13:44:12.778Z,98985.86
2018-03-30T13:46:40.190Z,98983.55
2018-03-30T13:49:07.698Z,98982.14
2018-03-30T13:51:37.822Z,98987.59
2018-03-30T13:54:20.245Z,98971.67
2018-03-30T13:56:51.317Z,98985.94
2018-03-30T13:59:20.453Z,98970.91
2018-03-30T14:01:52.414Z,98971.63
2018-03-30T14:04:29.193Z,98983.66
2018-03-30T14:07:00.437Z,98978.59
2018-03-30T14:09:28.613Z,98966.00
2018-03-30T14:14:59.401Z,98951.70
2018-03-30T14:23:33.221Z,98939.70
2018-03-30T14:26:15.037Z,98952.81
2018-03-30T14:28:42.428Z,98950.09
2018-03-30T14:31:12.591Z,98943.64
2018-03-30T14:33:39.989Z,98928.16
2018-03-30T14:36:09.833Z,98932.65
2018-03-30T14:38:48.043Z,98917.61
2018-03-30T14:41:16.150Z,98921.28
2018-03-30T14:43:54.318Z,98911.84
2018-03-30T14:46:24.120Z,98915.69
2018-03-30T14:48:53.885Z,98909.83
2018-03-30T14:51:31.248Z,98910.11
2018-03-30T14:54:01.233Z,98904.83
2018-03-30T14:56:45.949Z,98903.38
2018-03-30T14:59:36.939Z,98887.61
2018-03-30T15:02:19.122Z,98897.79
2018-03-30T15:04:48.429Z,98901.59
2018-03-30T15:07:25.729Z,98895.73
2018-03-30T15:10:10.959Z,98889.06
2018-03-30T15:12:46.646Z,98886.37
2018-03-30T15:15:16.530Z,98886.94
2018-03-30T15:17:46.553Z,98889.83
2018-03-30T15:20:18.721Z,98888.37
2018-03-30T15:22:48.546Z,98886.37
2018-03-30T15:25:16.238Z,98882.58
2018-03-30T15:27:53.540Z,98882.23
2018-03-30T15:30:34.564Z,98878.85
2018-03-30T15:33:14.450Z,98872.37
2018-03-30T15:35:54.626Z,98868.41
2018-03-30T15:38:22.036Z,98865.08
2018-03-30T15:40:49.450Z,98875.59
2018-03-30T15:43:16.958Z,98871.28
2018-03-30T15:45:54.921Z,98868.27
2018-03-30T15:48:22.332Z,98875.30
2018-03-30T15:50:52.586Z,98861.02
2018-03-30T15:53:19.470Z,98859.11
2018-03-30T15:55:49.472Z,98858.54
2018-03-30T15:58:16.884Z,98866.01
2018-03-30T16:00:44.283Z,98856.02
2018-03-30T16:03:11.712Z,98861.17
2018-03-30T16:05:39.123Z,98865.77
2018-03-30T16:08:06.576Z,98862.98
2018-03-30T16:10:51.622Z,98860.41
2018-03-30T16:13:19.088Z,98869.80
2018-03-30T16:15:46.460Z,98866.73
2018-03-30T16:18:13.907Z,98862.80
2018-03-30T16:20:40.773Z,98869.59
2018-03-30T16:23:07.630Z,98865.84
2018-03-30T16:25:34.507Z,98855.36
2018-03-30T16:28:01.361Z,98858.08
2018-03-30T16:30:28.253Z,98858.72
2018-03-30T16:32:55.118Z,98869.95
2018-03-30T16:35:21.982Z,98858.73
2018-03-30T16:37:48.849Z,98860.12
2018-03-30T16:40:15.725Z,98857.95
2018-03-30T16:42:42.607Z,98859.95
2018-03-30T16:45:09.498Z,98858.78
2018-03-30T16:47:36.682Z,98861.91
2018-03-30T16:50:03.549Z,98853.23
2018-03-30T16:52:30.430Z,98856.84
2018-03-30T16:54:57.309Z,98849.20
2018-03-30T16:57:24.178Z,98847.00
2018-03-30T16:59:51.069Z,98854.73
2018-03-30T17:02:18.085Z,98853.39
2018-03-30T17:04:44.960Z,98848.63
2018-03-30T17:07:11.819Z,98849.39
2018-03-30T17:09:38.703Z,98850.59
2018-03-30T17:12:05.576Z,98849.23
2018-03-30T17:14:32.455Z,98853.42
2018-03-30T17:16:59.330Z,98856.77
2018-03-30T17:19:26.226Z,98863.69
2018-03-30T17:21:53.093Z,98865.30
2018-03-30T17:24:19.975Z,98857.39
2018-03-30T17:26:46.961Z,98859.80
2018-03-30T17:29:13.830Z,98861.57
2018-03-30T17:31:40.717Z,98869.88
2018-03-30T17:34:07.602Z,98868.88
2018-03-30T17:36:34.496Z,98864.19
2018-03-30T17:39:01.384Z,98868.14
2018-03-30T17:41:28.299Z,98868.34
2018-03-30T17:43:55.392Z,98875.27
2018-03-30T17:46:22.470Z,98870.93
2018-03-30T17:48:49.358Z,98877.63
2018-03-30T17:51:16.402Z,98876.27
2018-03-30T17:53:43.266Z,98871.14
2018-03-30T17:56:10.158Z,98877.27
2018-03-30T17:58:37.041Z,98873.91
2018-03-30T18:01:03.926Z,98875.89
2018-03-30T18:03:30.814Z,98874.33
2018-03-30T18:05:57.687Z,98871.55
2018-03-30T18:08:24.581Z,98878.47
2018-03-30T18:10:51.474Z,98872.75
2018-03-30T18:13:18.365Z,98876.88
2018-03-30T18:15:45.241Z,98874.31
2018-03-30T18:18:12.142Z,98885.18
2018-03-30T18:20:39.010Z,98890.30
2018-03-30T18:23:06.136Z,98902.94
2018-03-30T18:25:33.062Z,98901.33
2018-03-30T18:28:00.028Z,98902.13
2018-03-30T18:30:26.930Z,98898.56
2018-03-30T18:32:53.886Z,98899.36
2018-03-30T18:35:20.778Z,98897.98
2018-03-30T18:37:47.724Z,98895.01
2018-03-30T18:40:14.642Z,98891.47
2018-03-30T18:42:41.559Z,98892.20
2018-03-30T18:45:08.421Z,98888.67
2018-03-30T18:47:35.300Z,98888.87
2018-03-30T18:50:02.210Z,98884.11
2018-03-30T18:52:29.078Z,98883.52
2018-03-30T18:54:55.966Z,98890.80
2018-03-30T18:57:22.870Z,98887.05
2018-03-30T18:59:49.898Z,98888.84
2018-03-30T19:02:16.833Z,98885.27
2018-03-30T19:04:43.680Z,98878.77
2018-03-30T19:07:10.569Z,98883.48
2018-03-30T19:09:37.437Z,98877.95
2018-03-30T19:12:04.332Z,98881.12
2018-03-30T19:14:31.228Z,98877.56
2018-03-30T19:16:58.119Z,98866.93
2018-03-30T19:19:24.998Z,98860.23
2018-03-30T19:21:51.905Z,98854.33
2018-03-30T19:24:18.814Z,98862.98
2018-03-30T19:26:45.691Z,98858.43
2018-03-30T19:29:12.563Z,98853.11
2018-03-30T19:31:39.451Z,98848.77
2018-03-30T19:34:06.348Z,98841.08
2018-03-30T19:36:33.346Z,98852.11
2018-03-30T19:39:00.230Z,98857.39
2018-03-30T19:41:27.106Z,98850.70
2018-03-30T19:43:54.001Z,98848.73
2018-03-30T19:46:20.889Z,98852.45
2018-03-30T19:48:47.777Z,98850.25
2018-03-30T19:51:14.655Z,98841.20
2018-03-30T19:53:41.521Z,98843.14
2018-03-30T19:56:08.407Z,98841.95
2018-03-30T19:58:35.401Z,98836.05
2018-03-30T20:01:02.269Z,98835.23
2018-03-30T20:03:29.138Z,98840.95
2018-03-30T20:05:56.029Z,98834.87
2018-03-30T20:08:22.901Z,98823.64
2018-03-30T20:10:49.910Z,98824.84
2018-03-30T20:13:16.794Z,98823.47
2018-03-30T20:15:43.686Z,98826.82
2018-03-30T20:18:10.553Z,98811.09
2018-03-30T20:20:37.424Z,98812.66
2018-03-30T20:23:04.298Z,98806.56
2018-03-30T20:25:31.167Z,98807.14
2018-03-30T20:27:58.123Z,98806.75
2018-03-30T20:30:25.028Z,98806.15
2018-03-30T20:32:51.976Z,98802.22
2018-03-30T20:35:18.869Z,98802.60
2018-03-30T20:37:45.730Z,98807.72
2018-03-30T20:40:12.618Z,98804.97
2018-03-30T20:42:39.510Z,98800.25
2018-03-30T20:45:06.361Z,98797.08
2018-03-30T20:47:33.242Z,98784.70
2018-03-30T20:50:00.111Z,98790.79
2018-03-30T20:52:27.003Z,98783.91
2018-03-30T20:54:53.910Z,98783.13
2018-03-30T20:57:20.826Z,98787.24
2018-03-30T20:59:47.731Z,98781.16
2018-03-30T21:02:14.628Z,98789.63
2018-03-30T21:04:41.493Z,98778.19
2018-03-30T21:07:08.382Z,98775.27
2018-03-30T21:09:35.259Z,98781.56
2018-03-30T21:12:02.133Z,98781.17
2018-03-30T21:14:29.011Z,98779.00
2018-03-30T21:16:55.903Z,98779.98
2018-03-30T21:19:22.769Z,98773.30
2018-03-30T21:21:49.643Z,98785.89
2018-03-30T21:24:16.535Z,98778.20
2018-03-30T21:26:43.437Z,98782.15
2018-03-30T21:29:10.310Z,98782.94
2018-03-30T21:31:37.177Z,98780.00
2018-03-30T21:34:04.065Z,98783.55
2018-03-30T21:36:30.957Z,98778.42
2018-03-30T21:38:57.824Z,98772.30
2018-03-30T21:41:24.777Z,98770.54
2018-03-30T21:43:51.605Z,98763.06
2018-03-30T21:46:18.468Z,98774.49
2018-03-30T21:48:45.347Z,98766.81
2018-03-30T21:51:12.213Z,98766.05
2018-03-30T21:53:39.083Z,98762.66
2018-03-30T21:56:05.963Z,98759.12
2018-03-30T21:58:32.950Z,98760.11
2018-03-30T22:00:59.828Z,98756.36
2018-03-30T22:03:26.700Z,98745.75
2018-03-30T22:05:53.587Z,98740.83
2018-03-30T22:08:20.462Z,98729.59
2018-03-30T22:10:47.325Z,98734.69
2018-03-30T22:13:14.209Z,98734.91
2018-03-30T22:15:41.114Z,98733.92
2018-03-30T22:18:07.985Z,98730.56
2018-03-30T22:20:34.861Z,98726.63
2018-03-30T22:23:01.750Z,98725.45
2018-03-30T22:25:28.634Z,98727.95
2018-03-30T22:27:55.531Z,98722.45
2018-03-30T22:30:22.394Z,98725.20
2018-03-30T22:32:49.267Z,98722.83
2018-03-30T22:35:16.146Z,98722.25
2018-03-30T22:37:43.029Z,98726.17
2018-03-30T22:40:09.897Z,98716.72
2018-03-30T22:42:36.776Z,98711.02
2018-03-30T22:45:03.654Z,98711.20
2018-03-30T22:47:30.533Z,98716.29
2018-03-30T22:49:57.411Z,98708.45
2018-03-30T22:52:24.293Z,98691.52
2018-03-30T22:54:51.153Z,98697.83
2018-03-30T22:57:18.051Z,98698.20
2018-03-30T22:59:44.921Z,98696.23
2018-03-30T23:02:11.794Z,98691.91
2018-03-30T23:04:38.682Z,98687.96
2018-03-30T23:07:05.550Z,98702.50
2018-03-30T23:09:32.425Z,98711.52
2018-03-30T23:11:59.309Z,98708.22
2018-03-30T23:14:26.175Z,98743.59
2018-03-30T23:16:53.062Z,98777.01
2018-03-30T23:19:19.939Z,98781.33
2018-03-30T23:21:46.962Z,98768.56
2018-03-30T23:24:13.828Z,98781.74
2018-03-30T23:26:40.690Z,98790.42
2018-03-30T23:29:07.570Z,98794.17
2018-03-30T23:31:34.439Z,98794.59
2018-03-30T23:34:01.322Z,98790.04
2018-03-30T23:36:28.189Z,98785.52
2018-03-30T23:38:55.076Z,98792.19
2018-03-30T23:41:21.962Z,98778.41
2018-03-30T23:43:48.837Z,98786.85
2018-03-30T23:46:15.705Z,98784.47
2018-03-30T23:48:42.591Z,98786.98
2018-03-30T23:51:09.469Z,98780.82
2018-03-30T23:53:36.349Z,98780.98
2018-03-30T23:56:03.217Z,98773.09
2018-03-30T23:58:30.101Z,98772.88
